EVA108 RCKH-RJAA
Flight info
| Callsign | EVA108 |
|---|---|
| Flight time | 3h 9m |
| Altitude | 35000 |
| Route | HCN2A HCN J7 PICHU Q13 IGURU Y57 AZAMA/N0455F370 Y57 YULIA Y89 GUPER Y81 RUTAS |
| Aircraft | A321/M-SDE3FGHIRWY/LB1 |
Departure
| Time | 2026-04-21 11:00 |
|---|---|
| Airport | Kaohsiung International Airport (RCKH) |
Arrival
| Time | 2026-04-21 14:09 |
|---|---|
| Airport | Narita International Airport (RJAA) |
| Time | Latitude | Longitude | Altitude | Speed | Heading |
|---|---|---|---|---|---|
| 2026-04-21 10:52 | 22.57267 | 120.34128 | 38 ft | 0 kts | 91° |
| 2026-04-21 10:54 | 22.57267 | 120.34114 | 38 ft | 2 kts | 90° |
| 2026-04-21 10:55 | 22.57267 | 120.34096 | 38 ft | 2 kts | 100° |
| 2026-04-21 10:55 | 22.57272 | 120.34080 | 38 ft | 2 kts | 131° |
| 2026-04-21 10:55 | 22.57291 | 120.34062 | 36 ft | 4 kts | 155° |
| 2026-04-21 10:55 | 22.57316 | 120.34055 | 35 ft | 4 kts | 178° |
| 2026-04-21 10:56 | 22.57343 | 120.34054 | 37 ft | 4 kts | 178° |
| 2026-04-21 10:56 | 22.57369 | 120.34053 | 36 ft | 4 kts | 187° |
| 2026-04-21 10:56 | 22.57395 | 120.34061 | 36 ft | 4 kts | 213° |
| 2026-04-21 10:56 | 22.57409 | 120.34077 | 37 ft | 0 kts | 270° |
| 2026-04-21 10:57 | 22.57410 | 120.34047 | 38 ft | 13 kts | 272° |
| 2026-04-21 10:57 | 22.57415 | 120.33881 | 38 ft | 29 kts | 272° |
| 2026-04-21 10:57 | 22.57425 | 120.33706 | 38 ft | 15 kts | 280° |
| 2026-04-21 10:57 | 22.57489 | 120.33624 | 38 ft | 14 kts | 318° |
| 2026-04-21 10:58 | 22.57560 | 120.33555 | 38 ft | 13 kts | 318° |
| 2026-04-21 10:58 | 22.57636 | 120.33506 | 38 ft | 13 kts | 354° |
| 2026-04-21 10:58 | 22.57722 | 120.33515 | 37 ft | 12 kts | 25° |
| 2026-04-21 10:58 | 22.57749 | 120.33590 | 38 ft | 11 kts | 90° |
| 2026-04-21 10:59 | 22.57748 | 120.33674 | 38 ft | 14 kts | 92° |
| 2026-04-21 10:59 | 22.57739 | 120.33995 | 38 ft | 76 kts | 91° |
| 2026-04-21 10:59 | 22.57714 | 120.34780 | 40 ft | 130 kts | 92° |
| 2026-04-21 10:59 | 22.57680 | 120.35915 | 61 ft | 168 kts | 91° |
| 2026-04-21 11:00 | 22.57640 | 120.37136 | 671 ft | 160 kts | 91° |
| 2026-04-21 11:00 | 22.57379 | 120.38353 | 818 ft | 182 kts | 124° |
| 2026-04-21 11:00 | 22.56220 | 120.39069 | 909 ft | 212 kts | 173° |
| 2026-04-21 11:00 | 22.54770 | 120.38639 | 1467 ft | 225 kts | 210° |
| 2026-04-21 11:01 | 22.53513 | 120.37612 | 2175 ft | 228 kts | 219° |
| 2026-04-21 11:01 | 22.52358 | 120.36444 | 2899 ft | 227 kts | 221° |
| 2026-04-21 11:01 | 22.51221 | 120.35249 | 3556 ft | 229 kts | 220° |
| 2026-04-21 11:02 | 22.48884 | 120.32866 | 4893 ft | 230 kts | 218° |
| 2026-04-21 11:02 | 22.47699 | 120.31706 | 5580 ft | 230 kts | 217° |
| 2026-04-21 11:02 | 22.46506 | 120.30559 | 6259 ft | 230 kts | 217° |
| 2026-04-21 11:02 | 22.45295 | 120.29409 | 6770 ft | 235 kts | 218° |
| 2026-04-21 11:03 | 22.44082 | 120.28259 | 7092 ft | 234 kts | 218° |
| 2026-04-21 11:03 | 22.42839 | 120.27083 | 7558 ft | 240 kts | 218° |
| 2026-04-21 11:03 | 22.41580 | 120.25897 | 8169 ft | 245 kts | 218° |
| 2026-04-21 11:03 | 22.40256 | 120.24659 | 8608 ft | 255 kts | 218° |
| 2026-04-21 11:04 | 22.38923 | 120.23413 | 9250 ft | 258 kts | 219° |
| 2026-04-21 11:04 | 22.37559 | 120.22137 | 9889 ft | 261 kts | 220° |
| 2026-04-21 11:04 | 22.36179 | 120.20842 | 10471 ft | 264 kts | 220° |
| 2026-04-21 11:04 | 22.34793 | 120.19542 | 11115 ft | 264 kts | 220° |
| 2026-04-21 11:05 | 22.33402 | 120.18239 | 11762 ft | 264 kts | 220° |
| 2026-04-21 11:05 | 22.32000 | 120.16922 | 12317 ft | 269 kts | 221° |
| 2026-04-21 11:05 | 22.30555 | 120.15622 | 12905 ft | 272 kts | 213° |
| 2026-04-21 11:05 | 22.28813 | 120.14798 | 13474 ft | 276 kts | 193° |
| 2026-04-21 11:06 | 22.26903 | 120.14680 | 14015 ft | 282 kts | 180° |
| 2026-04-21 11:06 | 22.24924 | 120.14767 | 14481 ft | 286 kts | 180° |
| 2026-04-21 11:06 | 22.22919 | 120.14859 | 14968 ft | 290 kts | 180° |
| 2026-04-21 11:06 | 22.20905 | 120.15147 | 15440 ft | 296 kts | 167° |
| 2026-04-21 11:07 | 22.19611 | 120.15652 | 15765 ft | 301 kts | 159° |
| 2026-04-21 11:07 | 22.17041 | 120.16870 | 16410 ft | 305 kts | 159° |
| 2026-04-21 11:07 | 22.15068 | 120.17791 | 16885 ft | 308 kts | 160° |
| 2026-04-21 11:07 | 22.13102 | 120.18702 | 17352 ft | 312 kts | 160° |
| 2026-04-21 11:08 | 22.11768 | 120.19319 | 17664 ft | 314 kts | 160° |
| 2026-04-21 11:08 | 22.09745 | 120.20253 | 18136 ft | 317 kts | 160° |
| 2026-04-21 11:08 | 22.07031 | 120.21504 | 18678 ft | 321 kts | 160° |
| 2026-04-21 11:08 | 22.05636 | 120.22148 | 18955 ft | 323 kts | 160° |
| 2026-04-21 11:09 | 22.03604 | 120.23134 | 19357 ft | 326 kts | 154° |
| 2026-04-21 11:09 | 22.01705 | 120.24503 | 19764 ft | 332 kts | 142° |
| 2026-04-21 11:09 | 22.00077 | 120.26291 | 20164 ft | 337 kts | 130° |
| 2026-04-21 11:09 | 21.98803 | 120.28429 | 20562 ft | 341 kts | 117° |
| 2026-04-21 11:10 | 21.97952 | 120.30831 | 20961 ft | 345 kts | 105° |
| 2026-04-21 11:10 | 21.97495 | 120.34237 | 21477 ft | 349 kts | 95° |
| 2026-04-21 11:10 | 21.97346 | 120.36001 | 21743 ft | 350 kts | 96° |
| 2026-04-21 11:10 | 21.97125 | 120.38586 | 22131 ft | 352 kts | 96° |
| 2026-04-21 11:11 | 21.96896 | 120.41228 | 22525 ft | 355 kts | 96° |
| 2026-04-21 11:11 | 21.96658 | 120.43888 | 22903 ft | 357 kts | 97° |
| 2026-04-21 11:11 | 21.96405 | 120.46572 | 23265 ft | 360 kts | 97° |
| 2026-04-21 11:11 | 21.96149 | 120.49231 | 23636 ft | 361 kts | 97° |
| 2026-04-21 11:12 | 21.95890 | 120.51941 | 23963 ft | 363 kts | 97° |
| 2026-04-21 11:12 | 21.95631 | 120.54656 | 24266 ft | 366 kts | 97° |
| 2026-04-21 11:12 | 21.95369 | 120.57397 | 24595 ft | 367 kts | 96° |
| 2026-04-21 11:12 | 21.95106 | 120.60144 | 24916 ft | 369 kts | 97° |
| 2026-04-21 11:13 | 21.94844 | 120.62874 | 25218 ft | 371 kts | 96° |
| 2026-04-21 11:13 | 21.94575 | 120.65666 | 25393 ft | 379 kts | 96° |
| 2026-04-21 11:13 | 21.94299 | 120.68534 | 25514 ft | 388 kts | 96° |
| 2026-04-21 11:13 | 21.94018 | 120.71462 | 25634 ft | 396 kts | 96° |
| 2026-04-21 11:14 | 21.93729 | 120.74452 | 25757 ft | 405 kts | 96° |
| 2026-04-21 11:14 | 21.93435 | 120.77495 | 25872 ft | 413 kts | 96° |
| 2026-04-21 11:14 | 21.93135 | 120.80601 | 25993 ft | 420 kts | 96° |
| 2026-04-21 11:14 | 21.93002 | 120.83771 | 26112 ft | 428 kts | 88° |
| 2026-04-21 11:15 | 21.93248 | 120.86952 | 26233 ft | 435 kts | 81° |
| 2026-04-21 11:15 | 21.93820 | 120.90182 | 26351 ft | 441 kts | 78° |
| 2026-04-21 11:15 | 21.94424 | 120.93450 | 26471 ft | 448 kts | 78° |
| 2026-04-21 11:15 | 21.95030 | 120.96764 | 26594 ft | 454 kts | 78° |
| 2026-04-21 11:16 | 21.95639 | 121.00134 | 26715 ft | 460 kts | 79° |
| 2026-04-21 11:16 | 21.96249 | 121.03543 | 26837 ft | 466 kts | 79° |
| 2026-04-21 11:16 | 21.96865 | 121.06995 | 26959 ft | 472 kts | 79° |
| 2026-04-21 11:16 | 21.97488 | 121.10482 | 27084 ft | 477 kts | 79° |
| 2026-04-21 11:17 | 21.98153 | 121.13972 | 27203 ft | 482 kts | 75° |
| 2026-04-21 11:17 | 21.99214 | 121.17424 | 27330 ft | 485 kts | 66° |
| 2026-04-21 11:17 | 22.00742 | 121.20694 | 27456 ft | 488 kts | 57° |
| 2026-04-21 11:17 | 22.02704 | 121.23693 | 27583 ft | 491 kts | 49° |
| 2026-04-21 11:18 | 22.04843 | 121.26525 | 27762 ft | 494 kts | 49° |
| 2026-04-21 11:18 | 22.07019 | 121.29422 | 27991 ft | 496 kts | 50° |
| 2026-04-21 11:18 | 22.09192 | 121.32332 | 28244 ft | 496 kts | 50° |
| 2026-04-21 11:18 | 22.11353 | 121.35234 | 28584 ft | 495 kts | 50° |
| 2026-04-21 11:19 | 22.13505 | 121.38126 | 28924 ft | 494 kts | 50° |
| 2026-04-21 11:19 | 22.15664 | 121.41026 | 29267 ft | 493 kts | 50° |
| 2026-04-21 11:19 | 22.17794 | 121.43888 | 29587 ft | 492 kts | 50° |
| 2026-04-21 11:19 | 22.19935 | 121.46769 | 29918 ft | 491 kts | 50° |
| 2026-04-21 11:20 | 22.22048 | 121.49614 | 30212 ft | 490 kts | 50° |
| 2026-04-21 11:20 | 22.24186 | 121.52501 | 30481 ft | 490 kts | 50° |
| 2026-04-21 11:20 | 22.26321 | 121.55384 | 30748 ft | 489 kts | 49° |
| 2026-04-21 11:20 | 22.28425 | 121.58222 | 30987 ft | 490 kts | 49° |
| 2026-04-21 11:21 | 22.30558 | 121.61090 | 31225 ft | 490 kts | 49° |
| 2026-04-21 11:21 | 22.32690 | 121.63959 | 31485 ft | 490 kts | 49° |
| 2026-04-21 11:21 | 22.34824 | 121.66838 | 31746 ft | 490 kts | 49° |
| 2026-04-21 11:21 | 22.36957 | 121.69718 | 32007 ft | 490 kts | 49° |
| 2026-04-21 11:22 | 22.39088 | 121.72602 | 32269 ft | 490 kts | 49° |
| 2026-04-21 11:22 | 22.41215 | 121.75481 | 32539 ft | 490 kts | 49° |
| 2026-04-21 11:22 | 22.43346 | 121.78361 | 32810 ft | 490 kts | 49° |
| 2026-04-21 11:22 | 22.45482 | 121.81244 | 33075 ft | 490 kts | 49° |
| 2026-04-21 11:23 | 22.47588 | 121.84091 | 33355 ft | 490 kts | 49° |
| 2026-04-21 11:23 | 22.49723 | 121.86984 | 33598 ft | 491 kts | 49° |
| 2026-04-21 11:23 | 22.51857 | 121.89880 | 33861 ft | 491 kts | 49° |
| 2026-04-21 11:23 | 22.53995 | 121.92777 | 34111 ft | 491 kts | 49° |
| 2026-04-21 11:24 | 22.56101 | 121.95632 | 34329 ft | 491 kts | 49° |
| 2026-04-21 11:24 | 22.58233 | 121.98521 | 34572 ft | 490 kts | 49° |
| 2026-04-21 11:24 | 22.60362 | 122.01408 | 34822 ft | 490 kts | 49° |
| 2026-04-21 11:24 | 22.62487 | 122.04290 | 34971 ft | 490 kts | 49° |
| 2026-04-21 11:25 | 22.66728 | 122.10059 | 35010 ft | 487 kts | 49° |
| 2026-04-21 11:25 | 22.70950 | 122.15814 | 35012 ft | 487 kts | 48° |
| 2026-04-21 11:26 | 22.75151 | 122.21535 | 35013 ft | 488 kts | 48° |
| 2026-04-21 11:26 | 22.79385 | 122.27304 | 35016 ft | 488 kts | 48° |
| 2026-04-21 11:27 | 22.83592 | 122.33040 | 35015 ft | 488 kts | 48° |
| 2026-04-21 11:27 | 22.87825 | 122.38820 | 35012 ft | 487 kts | 48° |
| 2026-04-21 11:28 | 22.92018 | 122.44566 | 35016 ft | 488 kts | 47° |
| 2026-04-21 11:28 | 22.96241 | 122.50349 | 35010 ft | 488 kts | 47° |
| 2026-04-21 11:29 | 23.00442 | 122.56114 | 35004 ft | 488 kts | 47° |
| 2026-04-21 11:29 | 23.04653 | 122.61908 | 35003 ft | 488 kts | 47° |
| 2026-04-21 11:30 | 23.08864 | 122.67699 | 35007 ft | 488 kts | 47° |
| 2026-04-21 11:30 | 23.13055 | 122.73458 | 35018 ft | 488 kts | 47° |
| 2026-04-21 11:31 | 23.17267 | 122.79265 | 35015 ft | 488 kts | 47° |
| 2026-04-21 11:31 | 23.21475 | 122.85065 | 35012 ft | 488 kts | 47° |
| 2026-04-21 11:32 | 23.25688 | 122.90873 | 35007 ft | 488 kts | 47° |
| 2026-04-21 11:32 | 23.29867 | 122.96636 | 35013 ft | 488 kts | 47° |
| 2026-04-21 11:33 | 23.34012 | 123.02490 | 35021 ft | 489 kts | 50° |
| 2026-04-21 11:33 | 23.37892 | 123.08593 | 35018 ft | 490 kts | 52° |
| 2026-04-21 11:34 | 23.41639 | 123.14747 | 35014 ft | 490 kts | 52° |
| 2026-04-21 11:34 | 23.45459 | 123.20907 | 35016 ft | 490 kts | 52° |
| 2026-04-21 11:35 | 23.49324 | 123.27016 | 35021 ft | 489 kts | 51° |
| 2026-04-21 11:35 | 23.53207 | 123.33118 | 35024 ft | 489 kts | 51° |
| 2026-04-21 11:36 | 23.57043 | 123.39202 | 35020 ft | 489 kts | 51° |
| 2026-04-21 11:36 | 23.60885 | 123.45339 | 35018 ft | 490 kts | 52° |
| 2026-04-21 11:37 | 23.64725 | 123.51482 | 35016 ft | 490 kts | 51° |
| 2026-04-21 11:37 | 23.68572 | 123.57629 | 35016 ft | 490 kts | 51° |
| 2026-04-21 11:38 | 23.72402 | 123.63743 | 35027 ft | 490 kts | 51° |
| 2026-04-21 11:38 | 23.76257 | 123.69895 | 35022 ft | 490 kts | 51° |
| 2026-04-21 11:39 | 23.80101 | 123.76051 | 35019 ft | 490 kts | 52° |
| 2026-04-21 11:39 | 23.83919 | 123.82178 | 35018 ft | 491 kts | 52° |
| 2026-04-21 11:40 | 23.87772 | 123.88358 | 35016 ft | 491 kts | 52° |
| 2026-04-21 11:40 | 23.91587 | 123.94499 | 35027 ft | 491 kts | 52° |
| 2026-04-21 11:41 | 23.95428 | 124.00693 | 35025 ft | 491 kts | 51° |
| 2026-04-21 11:41 | 23.99343 | 124.06822 | 35027 ft | 490 kts | 50° |
| 2026-04-21 11:42 | 24.03300 | 124.12858 | 35027 ft | 490 kts | 50° |
| 2026-04-21 11:42 | 24.07274 | 124.18946 | 35028 ft | 490 kts | 50° |
| 2026-04-21 11:43 | 24.11187 | 124.25009 | 35027 ft | 490 kts | 51° |
| 2026-04-21 11:43 | 24.15110 | 124.31120 | 35031 ft | 490 kts | 51° |
| 2026-04-21 11:44 | 24.19039 | 124.37237 | 35034 ft | 489 kts | 51° |
| 2026-04-21 11:44 | 24.22945 | 124.43304 | 35033 ft | 489 kts | 51° |
| 2026-04-21 11:45 | 24.26874 | 124.49408 | 35043 ft | 489 kts | 51° |
| 2026-04-21 11:45 | 24.30769 | 124.55476 | 35048 ft | 488 kts | 51° |
| 2026-04-21 11:46 | 24.34681 | 124.61594 | 35045 ft | 488 kts | 51° |
| 2026-04-21 11:46 | 24.38560 | 124.67661 | 35044 ft | 488 kts | 51° |
| 2026-04-21 11:47 | 24.42464 | 124.73771 | 35045 ft | 488 kts | 51° |
| 2026-04-21 11:47 | 24.46342 | 124.79837 | 35055 ft | 487 kts | 51° |
| 2026-04-21 11:48 | 24.50233 | 124.85937 | 35054 ft | 486 kts | 51° |
| 2026-04-21 11:48 | 24.54088 | 124.92003 | 35054 ft | 486 kts | 51° |
| 2026-04-21 11:49 | 24.57959 | 124.98094 | 35050 ft | 486 kts | 51° |
| 2026-04-21 11:49 | 24.61832 | 125.04196 | 35046 ft | 485 kts | 51° |
| 2026-04-21 11:50 | 24.65693 | 125.10284 | 35055 ft | 485 kts | 51° |
| 2026-04-21 11:50 | 24.69536 | 125.16351 | 35046 ft | 485 kts | 51° |
| 2026-04-21 11:51 | 24.73390 | 125.22452 | 35040 ft | 485 kts | 51° |
| 2026-04-21 11:51 | 24.77220 | 125.28529 | 35032 ft | 485 kts | 51° |
| 2026-04-21 11:52 | 24.80956 | 125.34742 | 35042 ft | 486 kts | 54° |
| 2026-04-21 11:52 | 24.84504 | 125.41114 | 35038 ft | 487 kts | 55° |
| 2026-04-21 11:53 | 24.88005 | 125.47456 | 35039 ft | 487 kts | 55° |
| 2026-04-21 11:53 | 24.91587 | 125.53821 | 35042 ft | 487 kts | 54° |
| 2026-04-21 11:54 | 24.95162 | 125.60120 | 35054 ft | 486 kts | 54° |
| 2026-04-21 11:54 | 24.98751 | 125.66452 | 35073 ft | 486 kts | 54° |
| 2026-04-21 11:55 | 25.02312 | 125.72768 | 35064 ft | 487 kts | 54° |
| 2026-04-21 11:55 | 25.05886 | 125.79121 | 35062 ft | 486 kts | 54° |
| 2026-04-21 11:56 | 25.09434 | 125.85444 | 35065 ft | 486 kts | 54° |
| 2026-04-21 11:56 | 25.12395 | 125.90725 | 35065 ft | 486 kts | 54° |
| 2026-04-21 11:57 | 25.15956 | 125.97081 | 35077 ft | 485 kts | 54° |
| 2026-04-21 11:57 | 25.19497 | 126.03403 | 35073 ft | 485 kts | 54° |
| 2026-04-21 11:58 | 25.23054 | 126.09760 | 35056 ft | 485 kts | 54° |
| 2026-04-21 11:58 | 25.26585 | 126.16083 | 35059 ft | 485 kts | 54° |
| 2026-04-21 11:59 | 25.30130 | 126.22437 | 35063 ft | 485 kts | 54° |
| 2026-04-21 11:59 | 25.33676 | 126.28808 | 35067 ft | 485 kts | 55° |
| 2026-04-21 12:00 | 25.37186 | 126.35132 | 35064 ft | 485 kts | 55° |
| 2026-04-21 12:00 | 25.40719 | 126.41500 | 35067 ft | 485 kts | 54° |
| 2026-04-21 12:01 | 25.44240 | 126.47831 | 35073 ft | 485 kts | 54° |
| 2026-04-21 12:01 | 25.47767 | 126.54197 | 35067 ft | 485 kts | 55° |
| 2026-04-21 12:02 | 25.53033 | 126.63786 | 35074 ft | 485 kts | 55° |
| 2026-04-21 12:03 | 25.56526 | 126.70147 | 35064 ft | 485 kts | 55° |
| 2026-04-21 12:03 | 25.60041 | 126.76556 | 35063 ft | 485 kts | 55° |
| 2026-04-21 12:04 | 25.63526 | 126.82916 | 35060 ft | 485 kts | 56° |
| 2026-04-21 12:04 | 25.67027 | 126.89324 | 35069 ft | 486 kts | 56° |
| 2026-04-21 12:05 | 25.70533 | 126.95751 | 35064 ft | 486 kts | 56° |
| 2026-04-21 12:05 | 25.74012 | 127.02139 | 35055 ft | 487 kts | 56° |
| 2026-04-21 12:06 | 25.77529 | 127.08592 | 35047 ft | 488 kts | 56° |
| 2026-04-21 12:06 | 25.81024 | 127.15020 | 35049 ft | 489 kts | 56° |
| 2026-04-21 12:07 | 25.84538 | 127.21496 | 35052 ft | 489 kts | 56° |
| 2026-04-21 12:07 | 25.88056 | 127.27987 | 35043 ft | 490 kts | 56° |
| 2026-04-21 12:08 | 25.91557 | 127.34461 | 35049 ft | 491 kts | 56° |
| 2026-04-21 12:08 | 25.95085 | 127.40989 | 35051 ft | 492 kts | 56° |
| 2026-04-21 12:09 | 25.98589 | 127.47493 | 35065 ft | 492 kts | 56° |
| 2026-04-21 12:09 | 26.02123 | 127.54055 | 35030 ft | 493 kts | 57° |
| 2026-04-21 12:10 | 26.05639 | 127.60585 | 35019 ft | 494 kts | 57° |
| 2026-04-21 12:10 | 26.09155 | 127.67137 | 35018 ft | 495 kts | 57° |
| 2026-04-21 12:11 | 26.12689 | 127.73737 | 35033 ft | 496 kts | 57° |
| 2026-04-21 12:11 | 26.16511 | 127.80062 | 35077 ft | 493 kts | 45° |
| 2026-04-21 12:12 | 26.21550 | 127.85182 | 35065 ft | 489 kts | 36° |
| 2026-04-21 12:12 | 26.26762 | 127.90024 | 35069 ft | 490 kts | 36° |
| 2026-04-21 12:13 | 26.32008 | 127.94921 | 35074 ft | 491 kts | 36° |
| 2026-04-21 12:13 | 26.37245 | 127.99831 | 35058 ft | 492 kts | 37° |
| 2026-04-21 12:14 | 26.42462 | 128.04717 | 35061 ft | 492 kts | 37° |
| 2026-04-21 12:14 | 26.47719 | 128.09637 | 35060 ft | 493 kts | 37° |
| 2026-04-21 12:15 | 26.52982 | 128.14580 | 35076 ft | 493 kts | 37° |
| 2026-04-21 12:15 | 26.58206 | 128.19495 | 35059 ft | 493 kts | 37° |
| 2026-04-21 12:16 | 26.63467 | 128.24438 | 35075 ft | 494 kts | 37° |
| 2026-04-21 12:16 | 26.68731 | 128.29402 | 35078 ft | 495 kts | 37° |
| 2026-04-21 12:17 | 26.73967 | 128.34343 | 35075 ft | 495 kts | 37° |
| 2026-04-21 12:17 | 26.79233 | 128.39325 | 35064 ft | 495 kts | 37° |
| 2026-04-21 12:18 | 26.84511 | 128.44324 | 35069 ft | 495 kts | 37° |
| 2026-04-21 12:18 | 26.89749 | 128.49277 | 35084 ft | 495 kts | 37° |
| 2026-04-21 12:19 | 26.95021 | 128.54274 | 35081 ft | 496 kts | 37° |
| 2026-04-21 12:19 | 27.00297 | 128.59281 | 35078 ft | 496 kts | 37° |
| 2026-04-21 12:20 | 27.05534 | 128.64254 | 35090 ft | 496 kts | 37° |
| 2026-04-21 12:20 | 27.10798 | 128.69268 | 35066 ft | 496 kts | 37° |
| 2026-04-21 12:21 | 27.16072 | 128.74297 | 35065 ft | 497 kts | 37° |
| 2026-04-21 12:21 | 27.21317 | 128.79308 | 35067 ft | 497 kts | 37° |
| 2026-04-21 12:22 | 27.26599 | 128.84355 | 35085 ft | 498 kts | 37° |
| 2026-04-21 12:22 | 27.31852 | 128.89372 | 35075 ft | 497 kts | 37° |
| 2026-04-21 12:23 | 27.37142 | 128.94440 | 35065 ft | 498 kts | 37° |
| 2026-04-21 12:23 | 27.42392 | 128.99487 | 35076 ft | 499 kts | 38° |
| 2026-04-21 12:24 | 27.47681 | 129.04577 | 35076 ft | 499 kts | 37° |
| 2026-04-21 12:24 | 27.52893 | 129.09683 | 35078 ft | 500 kts | 43° |
| 2026-04-21 12:25 | 27.57436 | 129.15649 | 35064 ft | 502 kts | 48° |
| 2026-04-21 12:25 | 27.61904 | 129.21721 | 35062 ft | 502 kts | 48° |
| 2026-04-21 12:26 | 27.66372 | 129.27800 | 35071 ft | 503 kts | 48° |
| 2026-04-21 12:26 | 27.70813 | 129.33854 | 35068 ft | 503 kts | 48° |
| 2026-04-21 12:27 | 27.75279 | 129.39950 | 35081 ft | 503 kts | 48° |
| 2026-04-21 12:27 | 27.79733 | 129.46041 | 35084 ft | 503 kts | 48° |
| 2026-04-21 12:28 | 27.84197 | 129.52153 | 35087 ft | 502 kts | 48° |
| 2026-04-21 12:28 | 27.88615 | 129.58207 | 35068 ft | 502 kts | 48° |
| 2026-04-21 12:29 | 27.93069 | 129.64320 | 35086 ft | 502 kts | 49° |
| 2026-04-21 12:29 | 27.97515 | 129.70439 | 35084 ft | 503 kts | 49° |
| 2026-04-21 12:30 | 28.01939 | 129.76519 | 35074 ft | 503 kts | 49° |
| 2026-04-21 12:30 | 28.06386 | 129.82648 | 35085 ft | 503 kts | 49° |
| 2026-04-21 12:31 | 28.10796 | 129.88746 | 35083 ft | 503 kts | 49° |
| 2026-04-21 12:31 | 28.15225 | 129.94892 | 35074 ft | 502 kts | 49° |
| 2026-04-21 12:32 | 28.19650 | 130.01031 | 35069 ft | 502 kts | 49° |
| 2026-04-21 12:32 | 28.24081 | 130.07167 | 35069 ft | 502 kts | 48° |
| 2026-04-21 12:33 | 28.28475 | 130.13254 | 35071 ft | 501 kts | 49° |
| 2026-04-21 12:33 | 28.32894 | 130.19401 | 35073 ft | 501 kts | 49° |
| 2026-04-21 12:34 | 28.37306 | 130.25552 | 35077 ft | 501 kts | 49° |
| 2026-04-21 12:34 | 28.41720 | 130.31704 | 35075 ft | 501 kts | 49° |
| 2026-04-21 12:35 | 28.46099 | 130.37815 | 35077 ft | 501 kts | 49° |
| 2026-04-21 12:35 | 28.50504 | 130.43985 | 35093 ft | 501 kts | 49° |
| 2026-04-21 12:36 | 28.54877 | 130.50114 | 35079 ft | 501 kts | 49° |
| 2026-04-21 12:36 | 28.59282 | 130.56297 | 35077 ft | 502 kts | 49° |
| 2026-04-21 12:37 | 28.63656 | 130.62451 | 35075 ft | 502 kts | 49° |
| 2026-04-21 12:37 | 28.68052 | 130.68632 | 35093 ft | 501 kts | 49° |
| 2026-04-21 12:38 | 28.72441 | 130.74811 | 35093 ft | 501 kts | 49° |
| 2026-04-21 12:38 | 28.76818 | 130.80988 | 35091 ft | 500 kts | 49° |
| 2026-04-21 12:39 | 28.81168 | 130.87137 | 35102 ft | 500 kts | 49° |
| 2026-04-21 12:39 | 28.85534 | 130.93326 | 35090 ft | 499 kts | 49° |
| 2026-04-21 12:40 | 28.89873 | 130.99474 | 35087 ft | 499 kts | 49° |
| 2026-04-21 12:40 | 28.94237 | 131.05658 | 35094 ft | 499 kts | 49° |
| 2026-04-21 12:41 | 28.98580 | 131.11838 | 35105 ft | 499 kts | 49° |
| 2026-04-21 12:41 | 29.02896 | 131.17983 | 35091 ft | 498 kts | 49° |
| 2026-04-21 12:42 | 29.07233 | 131.24174 | 35092 ft | 497 kts | 49° |
| 2026-04-21 12:42 | 29.11540 | 131.30325 | 35090 ft | 497 kts | 49° |
| 2026-04-21 12:43 | 29.15872 | 131.36509 | 35082 ft | 497 kts | 49° |
| 2026-04-21 12:43 | 29.20204 | 131.42704 | 35085 ft | 497 kts | 49° |
| 2026-04-21 12:44 | 29.24492 | 131.48864 | 35100 ft | 496 kts | 50° |
| 2026-04-21 12:44 | 29.28794 | 131.55059 | 35094 ft | 496 kts | 50° |
| 2026-04-21 12:45 | 29.33063 | 131.61212 | 35082 ft | 495 kts | 50° |
| 2026-04-21 12:45 | 29.37357 | 131.67408 | 35113 ft | 495 kts | 50° |
| 2026-04-21 12:46 | 29.41653 | 131.73586 | 35105 ft | 495 kts | 50° |
| 2026-04-21 12:46 | 29.45925 | 131.79747 | 35095 ft | 494 kts | 50° |
| 2026-04-21 12:47 | 29.50208 | 131.85953 | 35091 ft | 494 kts | 50° |
| 2026-04-21 12:47 | 29.54443 | 131.92114 | 35098 ft | 494 kts | 50° |
| 2026-04-21 12:48 | 29.57991 | 131.97271 | 35087 ft | 494 kts | 50° |
| 2026-04-21 12:48 | 29.62260 | 132.03472 | 35074 ft | 494 kts | 50° |
| 2026-04-21 12:49 | 29.67220 | 132.10671 | 35091 ft | 494 kts | 49° |
| 2026-04-21 12:49 | 29.70847 | 132.15765 | 35066 ft | 495 kts | 48° |
| 2026-04-21 12:50 | 29.75264 | 132.21875 | 35063 ft | 495 kts | 48° |
| 2026-04-21 12:50 | 29.79669 | 132.28012 | 35071 ft | 496 kts | 48° |
| 2026-04-21 12:51 | 29.84021 | 132.34150 | 35060 ft | 498 kts | 49° |
| 2026-04-21 12:51 | 29.88406 | 132.40356 | 35062 ft | 499 kts | 49° |
| 2026-04-21 12:52 | 29.92777 | 132.46531 | 35083 ft | 499 kts | 49° |
| 2026-04-21 12:52 | 29.97172 | 132.52749 | 35073 ft | 499 kts | 49° |
| 2026-04-21 12:53 | 30.01542 | 132.58933 | 35089 ft | 499 kts | 49° |
| 2026-04-21 12:53 | 30.05934 | 132.65156 | 35094 ft | 499 kts | 48° |
| 2026-04-21 12:54 | 30.10316 | 132.71375 | 35096 ft | 499 kts | 48° |
| 2026-04-21 12:54 | 30.14662 | 132.77556 | 35084 ft | 498 kts | 48° |
| 2026-04-21 12:55 | 30.19036 | 132.83792 | 35113 ft | 498 kts | 48° |
| 2026-04-21 12:55 | 30.23411 | 132.90034 | 35098 ft | 499 kts | 48° |
| 2026-04-21 12:56 | 30.27753 | 132.96240 | 35095 ft | 499 kts | 49° |
| 2026-04-21 12:56 | 30.32125 | 133.02501 | 35083 ft | 499 kts | 48° |
| 2026-04-21 12:57 | 30.36484 | 133.08752 | 35077 ft | 501 kts | 48° |
| 2026-04-21 12:57 | 30.40858 | 133.15038 | 35078 ft | 502 kts | 48° |
| 2026-04-21 12:58 | 30.45253 | 133.21346 | 35077 ft | 502 kts | 48° |
| 2026-04-21 12:58 | 30.49647 | 133.27675 | 35073 ft | 503 kts | 48° |
| 2026-04-21 12:59 | 30.53998 | 133.33968 | 35078 ft | 503 kts | 48° |
| 2026-04-21 12:59 | 30.58381 | 133.40299 | 35095 ft | 503 kts | 48° |
| 2026-04-21 13:00 | 30.62768 | 133.46639 | 35070 ft | 504 kts | 48° |
| 2026-04-21 13:00 | 30.67166 | 133.53012 | 35071 ft | 504 kts | 48° |
| 2026-04-21 13:01 | 30.71527 | 133.59344 | 35092 ft | 505 kts | 48° |
| 2026-04-21 13:01 | 30.75925 | 133.65744 | 35075 ft | 505 kts | 48° |
| 2026-04-21 13:02 | 30.80297 | 133.72100 | 35078 ft | 505 kts | 48° |
| 2026-04-21 13:02 | 30.86900 | 133.81725 | 35088 ft | 506 kts | 48° |
| 2026-04-21 13:03 | 30.91259 | 133.88117 | 35081 ft | 506 kts | 48° |
| 2026-04-21 13:03 | 30.95636 | 133.94547 | 35079 ft | 507 kts | 48° |
| 2026-04-21 13:04 | 31.00043 | 134.01000 | 35087 ft | 507 kts | 47° |
| 2026-04-21 13:04 | 31.04416 | 134.07401 | 35075 ft | 508 kts | 47° |
| 2026-04-21 13:05 | 31.08811 | 134.13870 | 35097 ft | 509 kts | 47° |
| 2026-04-21 13:05 | 31.13209 | 134.20364 | 35099 ft | 508 kts | 47° |
| 2026-04-21 13:06 | 31.17598 | 134.26848 | 35092 ft | 508 kts | 47° |
| 2026-04-21 13:06 | 31.21953 | 134.33296 | 35110 ft | 508 kts | 47° |
| 2026-04-21 13:07 | 31.26344 | 134.39795 | 35108 ft | 508 kts | 47° |
| 2026-04-21 13:07 | 31.30697 | 134.46251 | 35096 ft | 508 kts | 47° |
| 2026-04-21 13:08 | 31.35075 | 134.52763 | 35106 ft | 507 kts | 47° |
| 2026-04-21 13:08 | 31.39427 | 134.59226 | 35102 ft | 507 kts | 47° |
| 2026-04-21 13:09 | 31.43797 | 134.65738 | 35096 ft | 507 kts | 47° |
| 2026-04-21 13:09 | 31.48124 | 134.72216 | 35108 ft | 507 kts | 47° |
| 2026-04-21 13:10 | 31.52480 | 134.78733 | 35093 ft | 508 kts | 47° |
| 2026-04-21 13:10 | 31.56829 | 134.85257 | 35094 ft | 508 kts | 47° |
| 2026-04-21 13:11 | 31.61199 | 134.91818 | 35089 ft | 509 kts | 46° |
| 2026-04-21 13:11 | 31.65559 | 134.98376 | 35082 ft | 510 kts | 47° |
| 2026-04-21 13:12 | 31.69907 | 135.04930 | 35081 ft | 511 kts | 47° |
| 2026-04-21 13:12 | 31.74157 | 135.11635 | 35084 ft | 514 kts | 51° |
| 2026-04-21 13:13 | 31.78054 | 135.18706 | 35083 ft | 516 kts | 54° |
| 2026-04-21 13:13 | 31.81819 | 135.25884 | 35088 ft | 516 kts | 53° |
| 2026-04-21 13:14 | 31.85658 | 135.32954 | 35091 ft | 515 kts | 52° |
| 2026-04-21 13:14 | 31.89586 | 135.39995 | 35100 ft | 515 kts | 52° |
| 2026-04-21 13:15 | 31.93518 | 135.47050 | 35092 ft | 515 kts | 52° |
| 2026-04-21 13:15 | 31.97427 | 135.54142 | 35089 ft | 516 kts | 52° |
| 2026-04-21 13:16 | 32.01297 | 135.61213 | 35097 ft | 516 kts | 52° |
| 2026-04-21 13:16 | 32.05188 | 135.68339 | 35095 ft | 516 kts | 52° |
| 2026-04-21 13:17 | 32.09089 | 135.75479 | 35087 ft | 517 kts | 52° |
| 2026-04-21 13:17 | 32.12958 | 135.82573 | 35093 ft | 517 kts | 52° |
| 2026-04-21 13:18 | 32.16843 | 135.89718 | 35089 ft | 517 kts | 52° |
| 2026-04-21 13:18 | 32.20732 | 135.96875 | 35087 ft | 517 kts | 52° |
| 2026-04-21 13:19 | 32.24601 | 136.04002 | 35092 ft | 517 kts | 52° |
| 2026-04-21 13:19 | 32.28490 | 136.11189 | 35092 ft | 517 kts | 52° |
| 2026-04-21 13:20 | 32.32351 | 136.18321 | 35107 ft | 517 kts | 52° |
| 2026-04-21 13:20 | 32.36241 | 136.25503 | 35096 ft | 517 kts | 52° |
| 2026-04-21 13:21 | 32.40092 | 136.32638 | 35090 ft | 517 kts | 52° |
| 2026-04-21 13:21 | 32.43958 | 136.39838 | 35100 ft | 517 kts | 52° |
| 2026-04-21 13:22 | 32.47835 | 136.47042 | 35091 ft | 518 kts | 52° |
| 2026-04-21 13:22 | 32.51682 | 136.54207 | 35086 ft | 518 kts | 52° |
| 2026-04-21 13:23 | 32.55568 | 136.61468 | 35087 ft | 518 kts | 52° |
| 2026-04-21 13:23 | 32.59413 | 136.68662 | 35083 ft | 519 kts | 52° |
| 2026-04-21 13:24 | 32.63273 | 136.75893 | 35079 ft | 519 kts | 52° |
| 2026-04-21 13:24 | 32.67140 | 136.83153 | 35084 ft | 519 kts | 52° |
| 2026-04-21 13:25 | 32.70997 | 136.90410 | 35075 ft | 520 kts | 52° |
| 2026-04-21 13:25 | 32.74856 | 136.97691 | 35077 ft | 520 kts | 52° |
| 2026-04-21 13:26 | 32.78691 | 137.04949 | 35111 ft | 520 kts | 52° |
| 2026-04-21 13:26 | 32.82546 | 137.12230 | 35102 ft | 520 kts | 52° |
| 2026-04-21 13:27 | 32.86393 | 137.19523 | 35078 ft | 521 kts | 52° |
| 2026-04-21 13:27 | 32.90247 | 137.26845 | 35073 ft | 521 kts | 52° |
| 2026-04-21 13:28 | 32.94065 | 137.34126 | 35066 ft | 521 kts | 52° |
| 2026-04-21 13:28 | 32.97900 | 137.41450 | 35075 ft | 521 kts | 52° |
| 2026-04-21 13:29 | 33.01742 | 137.48786 | 35072 ft | 521 kts | 52° |
| 2026-04-21 13:29 | 33.05556 | 137.56084 | 35069 ft | 521 kts | 52° |
| 2026-04-21 13:30 | 33.09383 | 137.63433 | 35078 ft | 521 kts | 52° |
| 2026-04-21 13:30 | 33.13187 | 137.70757 | 35076 ft | 520 kts | 52° |
| 2026-04-21 13:31 | 33.17007 | 137.78106 | 35075 ft | 520 kts | 52° |
| 2026-04-21 13:31 | 33.20808 | 137.85439 | 35076 ft | 520 kts | 53° |
| 2026-04-21 13:32 | 33.24600 | 137.92795 | 35070 ft | 519 kts | 53° |
| 2026-04-21 13:32 | 33.28369 | 138.00120 | 35065 ft | 519 kts | 53° |
| 2026-04-21 13:33 | 33.32157 | 138.07494 | 35075 ft | 519 kts | 53° |
| 2026-04-21 13:33 | 33.35921 | 138.14825 | 35071 ft | 518 kts | 53° |
| 2026-04-21 13:34 | 33.39696 | 138.22184 | 35068 ft | 518 kts | 53° |
| 2026-04-21 13:34 | 33.43445 | 138.29516 | 35066 ft | 518 kts | 53° |
| 2026-04-21 13:35 | 33.47212 | 138.36902 | 35061 ft | 518 kts | 53° |
| 2026-04-21 13:35 | 33.50955 | 138.44248 | 35084 ft | 518 kts | 53° |
| 2026-04-21 13:36 | 33.54718 | 138.51644 | 35066 ft | 519 kts | 52° |
| 2026-04-21 13:36 | 33.58485 | 138.59053 | 35055 ft | 519 kts | 52° |
| 2026-04-21 13:37 | 33.62226 | 138.66422 | 35067 ft | 519 kts | 52° |
| 2026-04-21 13:37 | 33.65348 | 138.72578 | 35055 ft | 519 kts | 52° |
| 2026-04-21 13:38 | 33.69102 | 138.79996 | 35047 ft | 519 kts | 52° |
| 2026-04-21 13:38 | 33.72855 | 138.87453 | 35047 ft | 520 kts | 52° |
| 2026-04-21 13:39 | 33.76579 | 138.94866 | 35030 ft | 520 kts | 52° |
| 2026-04-21 13:39 | 33.80326 | 139.02313 | 35055 ft | 520 kts | 52° |
| 2026-04-21 13:40 | 33.84052 | 139.09744 | 35054 ft | 521 kts | 52° |
| 2026-04-21 13:40 | 33.87791 | 139.17243 | 35030 ft | 523 kts | 52° |
| 2026-04-21 13:41 | 33.91534 | 139.24762 | 35022 ft | 523 kts | 52° |
| 2026-04-21 13:41 | 33.95267 | 139.32251 | 35028 ft | 524 kts | 52° |
| 2026-04-21 13:42 | 33.99024 | 139.39806 | 35033 ft | 524 kts | 52° |
| 2026-04-21 13:42 | 34.02757 | 139.47317 | 35032 ft | 524 kts | 52° |
| 2026-04-21 13:43 | 34.06501 | 139.54872 | 35044 ft | 523 kts | 50° |
| 2026-04-21 13:43 | 34.10858 | 139.61783 | 35039 ft | 515 kts | 43° |
| 2026-04-21 13:44 | 34.15333 | 139.68498 | 35037 ft | 516 kts | 43° |
| 2026-04-21 13:44 | 34.19822 | 139.75262 | 35054 ft | 516 kts | 43° |
| 2026-04-21 13:45 | 34.24295 | 139.82022 | 35052 ft | 516 kts | 43° |
| 2026-04-21 13:45 | 34.26549 | 139.85435 | 34582 ft | 520 kts | 43° |
| 2026-04-21 13:45 | 34.28845 | 139.88902 | 33197 ft | 535 kts | 44° |
| 2026-04-21 13:46 | 34.31186 | 139.92438 | 32285 ft | 537 kts | 44° |
| 2026-04-21 13:46 | 34.33499 | 139.95958 | 31523 ft | 534 kts | 44° |
| 2026-04-21 13:46 | 34.35811 | 139.99488 | 30626 ft | 535 kts | 44° |
| 2026-04-21 13:46 | 34.38114 | 140.03008 | 29414 ft | 528 kts | 44° |
| 2026-04-21 13:47 | 34.40369 | 140.06457 | 27369 ft | 530 kts | 45° |
| 2026-04-21 13:47 | 34.42636 | 140.09921 | 26255 ft | 515 kts | 45° |
| 2026-04-21 13:47 | 34.44782 | 140.13221 | 25931 ft | 482 kts | 45° |
| 2026-04-21 13:47 | 34.46732 | 140.16515 | 25213 ft | 485 kts | 51° |
| 2026-04-21 13:48 | 34.48561 | 140.19999 | 24462 ft | 491 kts | 52° |
| 2026-04-21 13:48 | 34.50396 | 140.23510 | 23721 ft | 493 kts | 52° |
| 2026-04-21 13:48 | 34.52227 | 140.27041 | 22910 ft | 493 kts | 53° |
| 2026-04-21 13:48 | 34.54020 | 140.30525 | 22227 ft | 490 kts | 53° |
| 2026-04-21 13:49 | 34.55817 | 140.34029 | 21537 ft | 487 kts | 53° |
| 2026-04-21 13:49 | 34.57598 | 140.37508 | 20856 ft | 483 kts | 53° |
| 2026-04-21 13:49 | 34.59369 | 140.40963 | 20197 ft | 479 kts | 53° |
| 2026-04-21 13:49 | 34.61127 | 140.44387 | 19572 ft | 475 kts | 53° |
| 2026-04-21 13:50 | 34.62848 | 140.47735 | 18957 ft | 470 kts | 53° |
| 2026-04-21 13:50 | 34.64580 | 140.51101 | 18375 ft | 465 kts | 53° |
| 2026-04-21 13:50 | 34.66283 | 140.54421 | 17749 ft | 459 kts | 53° |
| 2026-04-21 13:50 | 34.67959 | 140.57698 | 17196 ft | 452 kts | 54° |
| 2026-04-21 13:51 | 34.69614 | 140.60919 | 16642 ft | 444 kts | 52° |
| 2026-04-21 13:51 | 34.71526 | 140.63780 | 16101 ft | 430 kts | 39° |
| 2026-04-21 13:51 | 34.73804 | 140.65973 | 15576 ft | 415 kts | 26° |
| 2026-04-21 13:51 | 34.76347 | 140.67503 | 15046 ft | 401 kts | 14° |
| 2026-04-21 13:52 | 34.79000 | 140.68340 | 14508 ft | 388 kts | 2° |
| 2026-04-21 13:52 | 34.81660 | 140.68680 | 13987 ft | 382 kts | 0° |
| 2026-04-21 13:52 | 34.84298 | 140.68999 | 13345 ft | 380 kts | 1° |
| 2026-04-21 13:52 | 34.86912 | 140.69325 | 12775 ft | 375 kts | 1° |
| 2026-04-21 13:53 | 34.89492 | 140.69653 | 12217 ft | 371 kts | 1° |
| 2026-04-21 13:53 | 34.92037 | 140.69974 | 11929 ft | 360 kts | 1° |
| 2026-04-21 13:53 | 34.94481 | 140.70285 | 11800 ft | 345 kts | 1° |
| 2026-04-21 13:53 | 34.96816 | 140.70582 | 11673 ft | 331 kts | 1° |
| 2026-04-21 13:54 | 34.99037 | 140.70863 | 11554 ft | 318 kts | 1° |
| 2026-04-21 13:54 | 35.01202 | 140.71135 | 11429 ft | 306 kts | 1° |
| 2026-04-21 13:54 | 35.03284 | 140.71396 | 11304 ft | 294 kts | 1° |
| 2026-04-21 13:54 | 35.05287 | 140.71646 | 11180 ft | 284 kts | 1° |
| 2026-04-21 13:55 | 35.07183 | 140.72207 | 11065 ft | 280 kts | 20° |
| 2026-04-21 13:55 | 35.08762 | 140.73550 | 11024 ft | 275 kts | 40° |
| 2026-04-21 13:55 | 35.10130 | 140.75080 | 11048 ft | 259 kts | 25° |
| 2026-04-21 13:55 | 35.11750 | 140.75751 | 11075 ft | 246 kts | 1° |
| 2026-04-21 13:56 | 35.13455 | 140.76044 | 11093 ft | 246 kts | 2° |
| 2026-04-21 13:56 | 35.15151 | 140.76343 | 11020 ft | 248 kts | 2° |
| 2026-04-21 13:56 | 35.16898 | 140.76645 | 10434 ft | 259 kts | 2° |
| 2026-04-21 13:56 | 35.18699 | 140.76953 | 9829 ft | 268 kts | 2° |
| 2026-04-21 13:57 | 35.20576 | 140.77266 | 9248 ft | 274 kts | 2° |
| 2026-04-21 13:57 | 35.22476 | 140.77577 | 8799 ft | 275 kts | 2° |
| 2026-04-21 13:57 | 35.24367 | 140.77878 | 8405 ft | 273 kts | 2° |
| 2026-04-21 13:57 | 35.26253 | 140.78157 | 8025 ft | 271 kts | 3° |
| 2026-04-21 13:58 | 35.28125 | 140.78395 | 7651 ft | 269 kts | 2° |
| 2026-04-21 13:58 | 35.29977 | 140.78586 | 7281 ft | 265 kts | 355° |
| 2026-04-21 13:58 | 35.31706 | 140.78083 | 6935 ft | 256 kts | 331° |
| 2026-04-21 13:58 | 35.33114 | 140.76825 | 6666 ft | 248 kts | 314° |
| 2026-04-21 13:59 | 35.34343 | 140.75376 | 6410 ft | 242 kts | 315° |
| 2026-04-21 13:59 | 35.35557 | 140.73985 | 6142 ft | 236 kts | 316° |
| 2026-04-21 13:59 | 35.36754 | 140.72631 | 5900 ft | 231 kts | 316° |
| 2026-04-21 13:59 | 35.37924 | 140.71309 | 5644 ft | 226 kts | 317° |
| 2026-04-21 14:00 | 35.39066 | 140.70015 | 5387 ft | 221 kts | 317° |
| 2026-04-21 14:00 | 35.40182 | 140.68748 | 5136 ft | 217 kts | 318° |
| 2026-04-21 14:00 | 35.41279 | 140.67497 | 4889 ft | 213 kts | 318° |
| 2026-04-21 14:00 | 35.42347 | 140.66281 | 4635 ft | 210 kts | 319° |
| 2026-04-21 14:01 | 35.43420 | 140.65059 | 4373 ft | 211 kts | 318° |
| 2026-04-21 14:01 | 35.44501 | 140.63828 | 4133 ft | 211 kts | 318° |
| 2026-04-21 14:01 | 35.45580 | 140.62599 | 4017 ft | 211 kts | 318° |
| 2026-04-21 14:01 | 35.46643 | 140.61386 | 4022 ft | 211 kts | 318° |
| 2026-04-21 14:02 | 35.47725 | 140.60150 | 4024 ft | 212 kts | 318° |
| 2026-04-21 14:02 | 35.48796 | 140.58929 | 4021 ft | 212 kts | 319° |
| 2026-04-21 14:02 | 35.49877 | 140.57696 | 4027 ft | 211 kts | 318° |
| 2026-04-21 14:03 | 35.52049 | 140.55267 | 4021 ft | 211 kts | 322° |
| 2026-04-21 14:03 | 35.53265 | 140.54243 | 3916 ft | 212 kts | 330° |
| 2026-04-21 14:03 | 35.54538 | 140.53334 | 3760 ft | 211 kts | 330° |
| 2026-04-21 14:03 | 35.55801 | 140.52427 | 3610 ft | 210 kts | 330° |
| 2026-04-21 14:04 | 35.57044 | 140.51533 | 3509 ft | 202 kts | 330° |
| 2026-04-21 14:04 | 35.58222 | 140.50685 | 3437 ft | 192 kts | 329° |
| 2026-04-21 14:04 | 35.59336 | 140.49884 | 3340 ft | 180 kts | 330° |
| 2026-04-21 14:04 | 35.60373 | 140.49139 | 3263 ft | 171 kts | 330° |
| 2026-04-21 14:05 | 35.61399 | 140.48402 | 3071 ft | 171 kts | 330° |
| 2026-04-21 14:05 | 35.62428 | 140.47663 | 2839 ft | 171 kts | 330° |
| 2026-04-21 14:05 | 35.63459 | 140.46920 | 2627 ft | 171 kts | 330° |
| 2026-04-21 14:05 | 35.64493 | 140.46177 | 2379 ft | 170 kts | 331° |
| 2026-04-21 14:06 | 35.65477 | 140.45468 | 2149 ft | 159 kts | 331° |
| 2026-04-21 14:06 | 35.66421 | 140.44786 | 1949 ft | 157 kts | 332° |
| 2026-04-21 14:06 | 35.67330 | 140.44127 | 1736 ft | 145 kts | 332° |
| 2026-04-21 14:06 | 35.68173 | 140.43516 | 1535 ft | 137 kts | 333° |
| 2026-04-21 14:07 | 35.68988 | 140.42927 | 1364 ft | 135 kts | 333° |
| 2026-04-21 14:07 | 35.69793 | 140.42347 | 1192 ft | 134 kts | 333° |
| 2026-04-21 14:07 | 35.70602 | 140.41764 | 1030 ft | 136 kts | 333° |
| 2026-04-21 14:07 | 35.71425 | 140.41164 | 839 ft | 138 kts | 332° |
| 2026-04-21 14:08 | 35.72258 | 140.40564 | 640 ft | 139 kts | 332° |
| 2026-04-21 14:08 | 35.73085 | 140.39978 | 459 ft | 139 kts | 332° |
| 2026-04-21 14:08 | 35.73914 | 140.39375 | 296 ft | 139 kts | 330° |
| 2026-04-21 14:08 | 35.74740 | 140.38781 | 151 ft | 132 kts | 329° |
| 2026-04-21 14:09 | 35.75411 | 140.38294 | 145 ft | 83 kts | 329° |
| 2026-04-21 14:09 | 35.75770 | 140.38036 | 147 ft | 47 kts | 329° |
| 2026-04-21 14:09 | 35.76046 | 140.37837 | 144 ft | 42 kts | 330° |
| 2026-04-21 14:09 | 35.76230 | 140.37741 | 143 ft | 26 kts | 348° |
| 2026-04-21 14:10 | 35.76372 | 140.37727 | 144 ft | 17 kts | 359° |
| 2026-04-21 14:10 | 35.76485 | 140.37727 | 144 ft | 16 kts | 0° |
| 2026-04-21 14:10 | 35.76570 | 140.37785 | 144 ft | 15 kts | 57° |
| 2026-04-21 14:10 | 35.76649 | 140.37785 | 144 ft | 12 kts | 331° |
| 2026-04-21 14:11 | 35.76723 | 140.37732 | 144 ft | 12 kts | 329° |
| 2026-04-21 14:11 | 35.76797 | 140.37678 | 144 ft | 12 kts | 329° |
| 2026-04-21 14:11 | 35.76869 | 140.37625 | 144 ft | 12 kts | 325° |
| 2026-04-21 14:11 | 35.76865 | 140.37578 | 144 ft | 7 kts | 224° |
| 2026-04-21 14:12 | 35.76777 | 140.37563 | 147 ft | 20 kts | 134° |
| 2026-04-21 14:12 | 35.76673 | 140.37625 | 146 ft | 12 kts | 154° |
| 2026-04-21 14:12 | 35.76669 | 140.37627 | 144 ft | 0 kts | 153° |